createdAt,value
2023-02-06T00:01:40.150Z,102502.58
2023-02-06T00:04:08.434Z,102499.91
2023-02-06T00:06:42.446Z,102505.91
2023-02-06T00:09:11.113Z,102502.97
2023-02-06T00:11:42.447Z,102504.98
2023-02-06T00:14:10.825Z,102509.37
2023-02-06T00:17:01.229Z,102515.45
2023-02-06T00:19:29.875Z,102510.88
2023-02-06T00:21:58.998Z,102509.22
2023-02-06T00:24:27.274Z,102505.46
2023-02-06T00:26:55.880Z,102504.81
2023-02-06T00:29:26.090Z,102503.61
2023-02-06T00:31:54.459Z,102507.06
2023-02-06T00:34:23.144Z,102505.71
2023-02-06T00:36:52.343Z,102502.35
2023-02-06T00:39:20.676Z,102506.40
2023-02-06T00:41:50.532Z,102510.56
2023-02-06T00:44:19.325Z,102511.56
2023-02-06T00:46:47.838Z,102509.16
2023-02-06T00:49:16.487Z,102506.91
2023-02-06T00:51:45.070Z,102511.98
2023-02-06T00:54:13.550Z,102512.15
2023-02-06T00:56:45.154Z,102508.55
2023-02-06T00:59:15.733Z,102510.10
2023-02-06T01:01:44.481Z,102507.24
2023-02-06T01:04:13.410Z,102501.29
2023-02-06T01:07:01.761Z,102505.94
2023-02-06T01:09:32.692Z,102505.27
2023-02-06T01:12:00.991Z,102506.91
2023-02-06T01:14:29.547Z,102502.38
2023-02-06T01:16:58.642Z,102503.59
2023-02-06T01:19:27.632Z,102501.57
2023-02-06T01:21:57.035Z,102497.35
2023-02-06T01:24:25.310Z,102498.41
2023-02-06T01:26:53.892Z,102498.81
2023-02-06T01:29:22.270Z,102503.02
2023-02-06T01:31:51.171Z,102501.70
2023-02-06T01:34:19.701Z,102502.27
2023-02-06T01:36:48.859Z,102506.65
2023-02-06T01:39:17.729Z,102502.23
2023-02-06T01:41:46.825Z,102506.59
2023-02-06T01:44:23.293Z,102505.08
2023-02-06T01:46:53.517Z,102507.58
2023-02-06T01:49:27.740Z,102506.63
2023-02-06T01:52:04.340Z,102507.27
2023-02-06T01:54:32.901Z,102507.04
2023-02-06T01:57:04.216Z,102504.59
2023-02-06T01:59:32.604Z,102505.71
2023-02-06T02:05:26.124Z,102502.88
2023-02-06T02:08:01.486Z,102504.55
2023-02-06T02:10:30.961Z,102505.49
2023-02-06T02:13:00.032Z,102509.62
2023-02-06T02:16:02.535Z,102509.11
2023-02-06T02:18:46.970Z,102514.27
2023-02-06T02:21:34.191Z,102512.97
2023-02-06T02:24:28.770Z,102515.64
2023-02-06T02:27:15.188Z,102518.48
2023-02-06T02:29:43.767Z,102520.09
2023-02-06T02:32:20.975Z,102518.62
2023-02-06T02:34:58.544Z,102518.15
2023-02-06T02:37:55.127Z,102515.57
2023-02-06T02:40:29.649Z,102516.86
2023-02-06T02:43:27.994Z,102523.95
2023-02-06T02:46:17.866Z,102524.27
2023-02-06T02:48:47.267Z,102520.11
2023-02-06T02:51:17.082Z,102518.48
2023-02-06T02:53:45.661Z,102516.94
2023-02-06T02:56:16.902Z,102520.35
2023-02-06T02:58:46.520Z,102520.98
2023-02-06T03:01:17.663Z,102519.88
2023-02-06T03:03:47.456Z,102524.95
2023-02-06T03:06:38.981Z,102520.81
2023-02-06T03:09:38.920Z,102527.10
2023-02-06T03:12:46.405Z,102527.03
2023-02-06T03:15:26.038Z,102532.41
2023-02-06T03:18:13.052Z,102535.44
2023-02-06T03:20:43.488Z,102535.27
2023-02-06T03:23:20.527Z,102539.17
2023-02-06T03:25:51.288Z,102535.77
2023-02-06T03:28:26.022Z,102533.39
2023-02-06T03:30:56.170Z,102533.25
2023-02-06T03:33:40.802Z,102536.56
2023-02-06T03:36:11.315Z,102538.34
2023-02-06T03:38:42.472Z,102541.34
2023-02-06T03:41:18.324Z,102544.73
2023-02-06T03:43:47.625Z,102548.11
2023-02-06T03:46:16.031Z,102547.59
2023-02-06T03:48:49.398Z,102549.73
2023-02-06T03:51:31.702Z,102550.28
2023-02-06T03:54:01.138Z,102543.43
2023-02-06T03:56:45.049Z,102543.52
2023-02-06T03:59:13.324Z,102545.73
2023-02-06T04:01:46.414Z,102548.56
2023-02-06T04:04:19.001Z,102548.21
2023-02-06T04:06:47.678Z,102549.36
2023-02-06T04:09:16.577Z,102544.66
2023-02-06T04:11:44.878Z,102539.60
2023-02-06T04:14:14.168Z,102539.17
2023-02-06T04:16:42.653Z,102537.97
2023-02-06T04:19:11.117Z,102544.66
2023-02-06T04:21:39.756Z,102550.45
2023-02-06T04:24:08.593Z,102554.73
2023-02-06T04:26:38.092Z,102558.70
2023-02-06T04:29:06.889Z,102555.63
2023-02-06T04:31:35.375Z,102560.40
2023-02-06T04:34:03.928Z,102562.45
2023-02-06T04:36:33.522Z,102564.13
2023-02-06T04:39:02.328Z,102568.52
2023-02-06T04:41:32.242Z,102574.16
2023-02-06T04:44:00.830Z,102578.06
2023-02-06T04:46:29.402Z,102580.76
2023-02-06T04:48:57.890Z,102579.20
2023-02-06T04:51:26.367Z,102583.20
2023-02-06T04:53:54.962Z,102583.58
2023-02-06T04:56:25.788Z,102586.86
2023-02-06T04:58:54.470Z,102589.30
2023-02-06T05:01:22.898Z,102583.66
2023-02-06T05:03:51.636Z,102586.41
2023-02-06T05:06:19.906Z,102591.58
2023-02-06T05:08:48.431Z,102597.49
2023-02-06T05:11:16.906Z,102595.29
2023-02-06T05:13:45.452Z,102595.10
2023-02-06T05:16:14.934Z,102605.02
2023-02-06T05:18:46.619Z,102606.16
2023-02-06T05:21:16.110Z,102610.27
2023-02-06T05:23:44.592Z,102612.01
2023-02-06T05:26:13.072Z,102615.23
2023-02-06T05:28:41.764Z,102618.80
2023-02-06T05:31:11.282Z,102620.13
2023-02-06T05:33:39.739Z,102621.61
2023-02-06T05:36:08.737Z,102633.27
2023-02-06T05:38:37.469Z,102632.06
2023-02-06T05:41:06.313Z,102630.71
2023-02-06T05:43:34.795Z,102631.61
2023-02-06T05:46:03.333Z,102630.67
2023-02-06T05:48:34.732Z,102630.74
2023-02-06T05:51:03.204Z,102627.08
2023-02-06T05:53:32.209Z,102633.46
2023-02-06T05:56:00.574Z,102635.42
2023-02-06T05:58:30.487Z,102641.46
2023-02-06T06:00:58.979Z,102638.73
2023-02-06T06:03:27.459Z,102638.59
2023-02-06T06:05:56.341Z,102639.83
2023-02-06T06:08:24.721Z,102642.34
2023-02-06T06:10:53.098Z,102639.39
2023-02-06T06:13:22.097Z,102644.14
2023-02-06T06:15:54.023Z,102648.52
2023-02-06T06:18:23.046Z,102647.38
2023-02-06T06:20:51.628Z,102653.25
2023-02-06T06:23:21.137Z,102655.18
2023-02-06T06:25:49.569Z,102655.29
2023-02-06T06:28:18.495Z,102648.63
2023-02-06T06:30:47.026Z,102649.54
2023-02-06T06:33:16.792Z,102652.55
2023-02-06T06:35:45.376Z,102651.71
2023-02-06T06:38:14.572Z,102646.96
2023-02-06T06:40:43.054Z,102645.79
2023-02-06T06:43:11.985Z,102648.23
2023-02-06T06:45:40.275Z,102653.27
2023-02-06T06:48:09.619Z,102650.91
2023-02-06T06:50:38.142Z,102647.54
2023-02-06T06:53:06.587Z,102645.13
2023-02-06T06:55:35.571Z,102647.87
2023-02-06T06:58:04.565Z,102644.91
2023-02-06T07:00:32.946Z,102645.16
2023-02-06T07:03:01.550Z,102651.16
2023-02-06T07:05:30.296Z,102648.67
2023-02-06T07:07:58.898Z,102650.63
2023-02-06T07:10:27.693Z,102656.35
2023-02-06T07:12:57.191Z,102658.53
2023-02-06T07:15:26.019Z,102656.11
2023-02-06T07:17:56.348Z,102663.20
2023-02-06T07:20:24.993Z,102661.54
2023-02-06T07:22:53.903Z,102663.42
2023-02-06T07:25:22.253Z,102662.09
2023-02-06T07:27:50.961Z,102661.48
2023-02-06T07:30:19.523Z,102666.85
2023-02-06T07:32:48.514Z,102665.89
2023-02-06T07:35:17.708Z,102667.17
2023-02-06T07:37:46.196Z,102665.54
2023-02-06T07:40:14.672Z,102657.91
2023-02-06T07:42:43.287Z,102667.25
2023-02-06T07:45:18.614Z,102658.20
2023-02-06T07:47:47.383Z,102663.93
2023-02-06T07:50:15.969Z,102662.15
2023-02-06T07:52:45.680Z,102659.88
2023-02-06T07:55:14.054Z,102659.00
2023-02-06T07:57:43.353Z,102659.10
2023-02-06T08:00:12.852Z,102659.32
2023-02-06T08:02:41.149Z,102657.86
2023-02-06T08:05:09.820Z,102658.80
2023-02-06T08:07:38.207Z,102653.77
2023-02-06T08:10:07.724Z,102654.84
2023-02-06T08:12:35.979Z,102650.39
2023-02-06T08:15:04.982Z,102654.91
2023-02-06T08:17:33.448Z,102657.68
2023-02-06T08:20:02.049Z,102658.56
2023-02-06T08:22:31.842Z,102654.49
2023-02-06T08:25:00.323Z,102653.84
2023-02-06T08:27:28.809Z,102662.51
2023-02-06T08:29:59.645Z,102663.00
2023-02-06T08:32:32.828Z,102664.21
2023-02-06T08:35:01.320Z,102663.06
2023-02-06T08:37:29.894Z,102662.40
2023-02-06T08:39:58.477Z,102665.84
2023-02-06T08:42:26.785Z,102669.27
2023-02-06T08:44:55.846Z,102671.30
2023-02-06T08:47:24.125Z,102673.23
2023-02-06T08:49:52.913Z,102672.75
2023-02-06T08:52:22.925Z,102675.02
2023-02-06T08:54:52.308Z,102674.55
2023-02-06T08:57:20.707Z,102673.81
2023-02-06T08:59:50.011Z,102678.06
2023-02-06T09:02:18.434Z,102679.34
2023-02-06T09:04:47.177Z,102682.02
2023-02-06T09:07:17.354Z,102677.48
2023-02-06T09:09:45.875Z,102676.39
2023-02-06T09:12:16.094Z,102678.73
2023-02-06T09:14:44.882Z,102679.50
2023-02-06T09:17:13.259Z,102675.71
2023-02-06T09:19:41.880Z,102670.23
2023-02-06T09:22:10.227Z,102667.29
2023-02-06T09:24:39.020Z,102661.80
2023-02-06T09:27:07.595Z,102663.81
2023-02-06T09:29:36.824Z,102663.56
2023-02-06T09:32:05.282Z,102660.90
2023-02-06T09:34:33.844Z,102666.59
2023-02-06T09:37:03.224Z,102663.98
2023-02-06T09:39:32.354Z,102665.39
2023-02-06T09:42:06.468Z,102660.49
2023-02-06T09:44:42.199Z,102659.52
2023-02-06T09:47:35.976Z,102658.39
2023-02-06T09:50:49.418Z,102655.07
2023-02-06T09:53:46.057Z,102657.85
2023-02-06T09:56:58.376Z,102650.91
2023-02-06T09:59:37.175Z,102660.70
2023-02-06T10:02:11.295Z,102658.77
2023-02-06T10:04:50.530Z,102658.94
2023-02-06T10:07:46.995Z,102651.13
2023-02-06T10:10:38.738Z,102646.45
2023-02-06T10:13:30.831Z,102647.55
2023-02-06T10:16:05.041Z,102641.98
2023-02-06T10:18:37.416Z,102640.95
2023-02-06T10:21:07.480Z,102641.00
2023-02-06T10:23:45.083Z,102644.89
2023-02-06T10:26:18.825Z,102647.52
2023-02-06T10:28:58.580Z,102647.31
2023-02-06T10:31:45.423Z,102649.14
2023-02-06T10:34:21.151Z,102658.17
2023-02-06T10:37:25.867Z,102662.71
2023-02-06T10:40:10.643Z,102661.28
2023-02-06T10:42:52.932Z,102661.98
2023-02-06T10:45:31.123Z,102665.85
2023-02-06T10:48:02.079Z,102668.77
2023-02-06T10:50:33.738Z,102668.42
2023-02-06T10:53:13.992Z,102669.86
2023-02-06T10:55:56.918Z,102674.84
2023-02-06T10:58:29.786Z,102671.58
2023-02-06T11:00:58.422Z,102675.86
2023-02-06T11:03:32.019Z,102671.49
2023-02-06T11:06:01.288Z,102670.42
2023-02-06T11:08:35.932Z,102672.71
2023-02-06T11:11:24.987Z,102680.45
2023-02-06T11:13:56.500Z,102683.08
2023-02-06T11:16:26.460Z,102686.58
2023-02-06T11:18:56.351Z,102689.48
2023-02-06T11:21:48.992Z,102687.30
2023-02-06T11:24:19.112Z,102680.60
2023-02-06T11:26:56.195Z,102678.55
2023-02-06T11:29:25.734Z,102675.02
2023-02-06T11:32:01.867Z,102665.70
2023-02-06T11:35:05.501Z,102664.34
2023-02-06T11:37:37.944Z,102665.00
2023-02-06T11:40:18.807Z,102657.32
2023-02-06T11:42:49.335Z,102656.83
2023-02-06T11:45:24.244Z,102662.88
2023-02-06T11:47:52.789Z,102658.39
2023-02-06T11:50:23.483Z,102665.15
2023-02-06T11:52:56.465Z,102661.17
2023-02-06T11:55:34.459Z,102663.59
2023-02-06T11:58:13.822Z,102662.21
2023-02-06T12:00:56.094Z,102667.19
2023-02-06T12:03:36.034Z,102667.48
2023-02-06T12:06:16.829Z,102664.73
2023-02-06T12:08:52.625Z,102669.61
2023-02-06T12:11:25.570Z,102668.75
2023-02-06T12:14:02.616Z,102673.55
2023-02-06T12:16:33.081Z,102673.05
2023-02-06T12:19:01.466Z,102681.14
2023-02-06T12:21:42.247Z,102680.88
2023-02-06T12:24:38.763Z,102684.31
2023-02-06T12:27:14.613Z,102689.11
2023-02-06T12:30:09.406Z,102693.59
2023-02-06T12:32:43.560Z,102691.50
2023-02-06T12:35:40.363Z,102691.25
2023-02-06T12:38:48.778Z,102692.16
2023-02-06T12:41:36.430Z,102693.79
2023-02-06T12:44:31.102Z,102691.16
2023-02-06T12:47:17.302Z,102699.20
2023-02-06T12:50:02.723Z,102705.83
2023-02-06T12:52:34.034Z,102707.44
2023-02-06T12:55:31.687Z,102714.65
2023-02-06T12:58:03.237Z,102715.34
2023-02-06T13:00:32.540Z,102717.51
2023-02-06T13:03:23.249Z,102713.45
2023-02-06T13:06:10.256Z,102717.69
2023-02-06T13:08:59.114Z,102718.20
2023-02-06T13:11:38.348Z,102726.02
2023-02-06T13:14:24.347Z,102726.63
2023-02-06T13:17:08.084Z,102730.17
2023-02-06T13:19:39.632Z,102725.36
2023-02-06T13:22:11.093Z,102725.36
2023-02-06T13:24:40.790Z,102728.11
2023-02-06T13:27:08.978Z,102732.28
2023-02-06T13:29:59.669Z,102735.39
2023-02-06T13:32:32.145Z,102739.64
2023-02-06T13:35:13.437Z,102742.75
2023-02-06T13:37:43.779Z,102740.48
2023-02-06T13:40:21.248Z,102739.98
2023-02-06T13:42:49.690Z,102733.20
2023-02-06T13:45:32.638Z,102734.39
2023-02-06T13:48:53.953Z,102739.20
2023-02-06T13:51:48.531Z,102738.72
2023-02-06T13:54:54.918Z,102747.42
2023-02-06T13:57:45.121Z,102751.94
2023-02-06T14:00:29.301Z,102746.92
2023-02-06T14:03:06.694Z,102757.90
2023-02-06T14:05:56.521Z,102757.75
2023-02-06T14:08:27.359Z,102755.74
2023-02-06T14:11:26.352Z,102764.45
2023-02-06T14:14:22.071Z,102761.30
2023-02-06T14:16:59.778Z,102770.12
2023-02-06T14:19:37.256Z,102764.45
2023-02-06T14:22:17.411Z,102765.70
2023-02-06T14:25:13.436Z,102763.27
2023-02-06T14:27:48.504Z,102763.23
2023-02-06T14:31:09.416Z,102766.67
2023-02-06T14:33:41.031Z,102771.98
2023-02-06T14:36:28.253Z,102772.20
2023-02-06T14:39:30.731Z,102778.39
2023-02-06T14:41:59.018Z,102776.66
2023-02-06T14:44:29.887Z,102775.75
2023-02-06T14:46:58.582Z,102778.66
2023-02-06T14:49:33.099Z,102779.29
2023-02-06T14:52:01.639Z,102779.35
2023-02-06T14:54:35.294Z,102784.04
2023-02-06T14:57:16.716Z,102788.97
2023-02-06T15:00:02.760Z,102791.24
2023-02-06T15:02:34.787Z,102798.42
2023-02-06T15:05:03.487Z,102801.63
2023-02-06T15:07:36.550Z,102807.92
2023-02-06T15:10:14.385Z,102807.86
2023-02-06T15:12:51.637Z,102807.89
2023-02-06T15:15:23.799Z,102815.63
2023-02-06T15:18:07.546Z,102819.42
2023-02-06T15:20:42.674Z,102821.48
2023-02-06T15:23:28.984Z,102827.02
2023-02-06T15:26:03.596Z,102830.64
2023-02-06T15:28:34.541Z,102835.11
2023-02-06T15:31:03.395Z,102832.21
2023-02-06T15:33:33.385Z,102835.80
2023-02-06T15:36:02.973Z,102835.64
2023-02-06T15:38:33.166Z,102839.13
2023-02-06T15:41:04.359Z,102845.35
2023-02-06T15:43:33.412Z,102849.55
2023-02-06T15:46:05.218Z,102853.46
2023-02-06T15:48:43.827Z,102855.44
2023-02-06T15:51:29.878Z,102854.74
2023-02-06T15:54:07.477Z,102861.45
2023-02-06T15:56:40.897Z,102866.76
2023-02-06T15:59:20.603Z,102869.73
2023-02-06T16:01:49.918Z,102870.30
2023-02-06T16:04:22.387Z,102879.73
2023-02-06T16:07:24.558Z,102884.88
2023-02-06T16:09:55.803Z,102893.98
2023-02-06T16:12:24.290Z,102892.80
2023-02-06T16:14:57.418Z,102897.93
2023-02-06T16:17:37.320Z,102895.05
2023-02-06T16:20:27.305Z,102899.70
2023-02-06T16:22:58.752Z,102898.16
2023-02-06T16:25:31.738Z,102905.00
2023-02-06T16:28:00.417Z,102904.45
2023-02-06T16:30:31.643Z,102906.59
2023-02-06T16:33:01.168Z,102909.00
2023-02-06T16:35:30.599Z,102906.98
2023-02-06T16:37:59.356Z,102907.48
2023-02-06T16:40:27.837Z,102908.80
2023-02-06T16:42:56.316Z,102912.21
2023-02-06T16:45:26.578Z,102913.76
2023-02-06T16:47:55.019Z,102911.64
2023-02-06T16:50:24.213Z,102913.85
2023-02-06T16:52:54.957Z,102916.63
2023-02-06T16:55:25.200Z,102915.75
2023-02-06T16:57:55.202Z,102911.86
2023-02-06T17:00:31.252Z,102918.80
2023-02-06T17:03:00.031Z,102921.63
2023-02-06T17:05:29.152Z,102921.19
2023-02-06T17:07:57.504Z,102926.55
2023-02-06T17:10:26.718Z,102925.86
2023-02-06T17:12:55.594Z,102928.52
2023-02-06T17:15:24.182Z,102929.37
2023-02-06T17:17:54.673Z,102929.98
2023-02-06T17:20:32.741Z,102934.26
2023-02-06T17:23:01.805Z,102936.94
2023-02-06T17:25:30.588Z,102940.23
2023-02-06T17:27:59.098Z,102942.31
2023-02-06T17:30:27.834Z,102944.11
2023-02-06T17:32:56.747Z,102943.59
2023-02-06T17:35:25.050Z,102942.98
2023-02-06T17:37:53.574Z,102947.32
2023-02-06T17:40:25.695Z,102945.56
2023-02-06T17:42:54.994Z,102940.22
2023-02-06T17:45:23.662Z,102943.90
2023-02-06T17:47:53.164Z,102937.79
2023-02-06T17:50:23.932Z,102935.83
2023-02-06T17:52:55.859Z,102938.27
2023-02-06T17:55:24.134Z,102935.76
2023-02-06T17:57:53.133Z,102934.80
2023-02-06T18:00:23.468Z,102937.77
2023-02-06T18:02:53.094Z,102942.70
2023-02-06T18:05:21.749Z,102940.09
2023-02-06T18:07:51.054Z,102934.91
2023-02-06T18:10:20.551Z,102935.94
2023-02-06T18:12:49.260Z,102926.76
2023-02-06T18:15:18.021Z,102924.27
2023-02-06T18:17:47.323Z,102922.85
2023-02-06T18:20:16.013Z,102921.23
2023-02-06T18:22:45.105Z,102919.58
2023-02-06T18:25:14.762Z,102920.99
2023-02-06T18:27:46.004Z,102922.71
2023-02-06T18:30:14.831Z,102919.98
2023-02-06T18:32:44.037Z,102915.68
2023-02-06T18:35:12.533Z,102916.05
2023-02-06T18:37:40.897Z,102921.02
2023-02-06T18:40:09.987Z,102918.80
2023-02-06T18:42:51.675Z,102919.91
2023-02-06T18:45:21.134Z,102920.50
2023-02-06T18:47:51.738Z,102924.27
2023-02-06T18:50:22.058Z,102926.38
2023-02-06T18:52:50.511Z,102922.95
2023-02-06T18:55:19.098Z,102921.92
2023-02-06T18:57:47.778Z,102925.96
2023-02-06T19:00:17.708Z,102929.08
2023-02-06T19:02:45.969Z,102931.27
2023-02-06T19:05:14.860Z,102929.05
2023-02-06T19:07:45.705Z,102931.08
2023-02-06T19:10:16.429Z,102930.38
2023-02-06T19:12:44.923Z,102932.13
2023-02-06T19:15:14.922Z,102933.84
2023-02-06T19:17:43.465Z,102937.42
2023-02-06T19:20:12.591Z,102943.61
2023-02-06T19:22:41.222Z,102945.28
2023-02-06T19:25:12.638Z,102946.61
2023-02-06T19:27:42.571Z,102947.41
2023-02-06T19:30:13.140Z,102951.80
2023-02-06T19:32:42.182Z,102949.23
2023-02-06T19:35:12.196Z,102952.37
2023-02-06T19:37:40.784Z,102956.67
2023-02-06T19:40:09.874Z,102959.70
2023-02-06T19:42:40.060Z,102964.96
2023-02-06T19:45:08.885Z,102958.35
2023-02-06T19:47:37.684Z,102959.22
2023-02-06T19:50:07.372Z,102958.50
2023-02-06T19:52:35.754Z,102959.54
2023-02-06T19:55:04.656Z,102957.32
2023-02-06T19:57:33.737Z,102960.85
2023-02-06T20:00:02.128Z,102968.64
2023-02-06T20:02:39.398Z,102966.66
2023-02-06T20:05:08.921Z,102973.55
2023-02-06T20:07:37.179Z,102972.13
2023-02-06T20:10:06.286Z,102972.90
2023-02-06T20:12:35.988Z,102968.55
2023-02-06T20:15:05.367Z,102968.20
2023-02-06T20:17:33.664Z,102969.89
2023-02-06T20:20:02.251Z,102974.36
2023-02-06T20:22:31.355Z,102973.63
2023-02-06T20:24:59.925Z,102972.23
2023-02-06T20:27:28.864Z,102976.41
2023-02-06T20:29:57.094Z,102977.91
2023-02-06T20:32:26.003Z,102979.00
2023-02-06T20:34:54.565Z,102981.27
2023-02-06T20:37:23.056Z,102983.87
2023-02-06T20:39:51.644Z,102982.35
2023-02-06T20:42:22.562Z,102976.35
2023-02-06T20:44:51.779Z,102977.98
2023-02-06T20:47:20.137Z,102987.35
2023-02-06T20:49:48.823Z,102984.70
2023-02-06T20:52:17.201Z,102984.73
2023-02-06T20:54:45.792Z,102986.33
2023-02-06T20:57:15.699Z,102982.48
2023-02-06T20:59:43.976Z,102987.53
2023-02-06T21:02:12.686Z,102990.11
2023-02-06T21:04:41.754Z,102986.85
2023-02-06T21:07:10.440Z,102986.02
2023-02-06T21:09:38.813Z,102986.08
2023-02-06T21:12:07.816Z,102990.27
2023-02-06T21:14:36.087Z,102990.92
2023-02-06T21:17:04.669Z,102989.81
2023-02-06T21:19:33.146Z,102993.95
2023-02-06T21:22:02.138Z,102993.71
2023-02-06T21:24:30.578Z,103001.58
2023-02-06T21:26:58.912Z,103001.06
2023-02-06T21:29:27.485Z,102998.45
2023-02-06T21:32:12.158Z,102995.63
2023-02-06T21:34:41.660Z,102997.73
2023-02-06T21:37:09.932Z,102997.64
2023-02-06T21:39:41.287Z,102994.78
2023-02-06T21:42:10.580Z,102993.79
2023-02-06T21:44:39.562Z,102999.45
2023-02-06T21:47:10.212Z,103001.09
2023-02-06T21:49:38.904Z,103003.42
2023-02-06T21:52:07.568Z,103002.56
2023-02-06T21:54:38.152Z,103004.17
2023-02-06T21:57:06.581Z,103001.00
2023-02-06T21:59:36.688Z,103001.81
2023-02-06T22:02:05.479Z,103004.13
2023-02-06T22:04:33.858Z,103009.32
2023-02-06T22:07:02.246Z,103005.81
2023-02-06T22:09:30.921Z,102998.70
2023-02-06T22:12:00.016Z,103003.49
2023-02-06T22:14:28.295Z,103005.48
2023-02-06T22:16:56.876Z,103001.66
2023-02-06T22:19:25.558Z,102999.02
2023-02-06T22:21:54.244Z,103005.85
2023-02-06T22:24:22.725Z,103003.74
2023-02-06T22:26:51.102Z,103001.05
2023-02-06T22:29:19.788Z,102997.84
2023-02-06T22:31:48.685Z,102999.29
2023-02-06T22:34:18.507Z,102996.94
2023-02-06T22:36:51.351Z,102994.23
2023-02-06T22:39:20.084Z,102994.17
2023-02-06T22:41:49.769Z,102995.45
2023-02-06T22:44:19.366Z,102994.61
2023-02-06T22:46:52.675Z,102993.52
2023-02-06T22:49:21.768Z,102990.25
2023-02-06T22:51:51.062Z,102988.20
2023-02-06T22:54:19.947Z,102991.84
2023-02-06T22:56:48.533Z,102989.70
2023-02-06T22:59:19.568Z,102993.41
2023-02-06T23:01:58.741Z,102993.54
2023-02-06T23:04:29.357Z,103001.55
2023-02-06T23:06:59.173Z,102996.64
2023-02-06T23:09:32.641Z,102998.63
2023-02-06T23:12:02.965Z,102997.45
2023-02-06T23:14:32.162Z,102993.61
2023-02-06T23:17:00.735Z,102997.55
2023-02-06T23:19:30.873Z,103004.64
2023-02-06T23:21:59.361Z,103005.82
2023-02-06T23:24:29.371Z,103010.58
2023-02-06T23:26:58.051Z,103010.77
2023-02-06T23:29:26.767Z,103009.21
2023-02-06T23:31:55.955Z,103009.56
2023-02-06T23:34:24.752Z,103012.33
2023-02-06T23:36:56.563Z,103021.77
2023-02-06T23:39:24.972Z,103010.64
2023-02-06T23:41:53.537Z,103006.65
2023-02-06T23:44:21.815Z,103008.39
2023-02-06T23:46:50.302Z,103011.22
2023-02-06T23:49:19.186Z,103018.86
2023-02-06T23:51:47.459Z,103018.39
2023-02-06T23:54:15.756Z,103021.08
2023-02-06T23:56:46.572Z,103015.27
2023-02-06T23:59:15.363Z,103025.36
